createdAt,value
2022-10-06T00:00:09.731Z,4.92857
2022-10-06T00:01:09.941Z,4.85714
2022-10-06T00:02:09.832Z,4.64286
2022-10-06T00:03:09.832Z,4.64286
2022-10-06T00:04:10.023Z,4.5
2022-10-06T00:05:09.912Z,4.5
2022-10-06T00:06:09.948Z,4.85714
2022-10-06T00:07:09.972Z,4.5
2022-10-06T00:08:10.298Z,4
2022-10-06T00:09:10.041Z,4.92857
2022-10-06T00:10:10.075Z,5
2022-10-06T00:11:10.129Z,4.42857
2022-10-06T00:12:10.149Z,4.21429
2022-10-06T00:13:10.178Z,4.42857
2022-10-06T00:14:10.224Z,5.5
2022-10-06T00:15:10.243Z,4.5
2022-10-06T00:16:10.410Z,4.71429
2022-10-06T00:17:10.323Z,4.71429
2022-10-06T00:18:10.365Z,4.64286
2022-10-06T00:19:10.413Z,4.5
2022-10-06T00:20:10.423Z,4.92857
2022-10-06T00:21:10.459Z,4.71429
2022-10-06T00:22:10.489Z,4.5
2022-10-06T00:23:10.526Z,5.5
2022-10-06T00:24:10.557Z,4.64286
2022-10-06T00:25:10.590Z,4.42857
2022-10-06T00:26:10.632Z,4.92857
2022-10-06T00:27:10.668Z,4.5
2022-10-06T00:28:10.767Z,4.42857
2022-10-06T00:29:10.735Z,4.85714
2022-10-06T00:30:10.769Z,4.64286
2022-10-06T00:31:10.895Z,4.35714
2022-10-06T00:32:10.850Z,4.35714
2022-10-06T00:33:10.885Z,4.42857
2022-10-06T00:34:10.925Z,4.71429
2022-10-06T00:35:10.968Z,5.14286
2022-10-06T00:36:10.996Z,4.42857
2022-10-06T00:37:11.047Z,3.92857
2022-10-06T00:38:11.067Z,4.42857
2022-10-06T00:39:11.096Z,4.5
2022-10-06T00:40:11.131Z,4.35714
2022-10-06T00:41:11.168Z,4.5
2022-10-06T00:42:11.213Z,4.64286
2022-10-06T00:43:11.246Z,4.85714
2022-10-06T00:44:11.288Z,4.5
2022-10-06T00:45:11.321Z,4.71429
2022-10-06T00:46:11.402Z,4.5
2022-10-06T00:47:11.402Z,4.92857
2022-10-06T00:48:11.426Z,4.42857
2022-10-06T00:49:11.465Z,4.71429
2022-10-06T00:50:11.507Z,4.85714
2022-10-06T00:51:11.544Z,4.21429
2022-10-06T00:52:11.568Z,4.85714
2022-10-06T00:53:11.595Z,4.5
2022-10-06T00:54:11.636Z,4.35714
2022-10-06T00:55:11.677Z,4.85714
2022-10-06T00:56:11.721Z,4.5
2022-10-06T00:57:11.750Z,5.64286
2022-10-06T00:58:11.786Z,4.64286
2022-10-06T00:59:11.827Z,5
2022-10-06T01:00:11.862Z,4.71429
2022-10-06T01:01:11.979Z,4.64286
2022-10-06T01:02:11.931Z,4.71429
2022-10-06T01:03:11.964Z,4.42857
2022-10-06T01:04:12.002Z,4.42857
2022-10-06T01:05:12.034Z,4.71429
2022-10-06T01:06:12.065Z,4.14286
2022-10-06T01:07:12.095Z,4.64286
2022-10-06T01:08:12.124Z,4.42857
2022-10-06T01:09:12.162Z,4.71429
2022-10-06T01:10:12.197Z,4.71429
2022-10-06T01:11:12.230Z,4.14286
2022-10-06T01:12:12.264Z,3.92857
2022-10-06T01:13:12.292Z,4.5
2022-10-06T01:14:12.327Z,4.21429
2022-10-06T01:15:12.361Z,4.42857
2022-10-06T01:16:12.486Z,4.42857
2022-10-06T01:17:12.438Z,4.35714
2022-10-06T01:18:12.483Z,4.5
2022-10-06T01:19:12.523Z,4.64286
2022-10-06T01:20:12.558Z,4.71429
2022-10-06T01:21:12.596Z,4.92857
2022-10-06T01:22:12.627Z,4.5
2022-10-06T01:23:12.656Z,4.14286
2022-10-06T01:24:12.689Z,4.35714
2022-10-06T01:25:12.730Z,4.64286
2022-10-06T01:26:12.761Z,4.21429
2022-10-06T01:27:12.795Z,4.71429
2022-10-06T01:28:12.924Z,4.71429
2022-10-06T01:29:12.866Z,4.64286
2022-10-06T01:30:12.901Z,4.42857
2022-10-06T01:31:12.998Z,4.21429
2022-10-06T01:32:12.985Z,4.21429
2022-10-06T01:33:13.021Z,4.42857
2022-10-06T01:34:13.054Z,4.64286
2022-10-06T01:35:13.086Z,4.42857
2022-10-06T01:36:13.124Z,4.5
2022-10-06T01:37:13.160Z,4.21429
2022-10-06T01:38:13.192Z,4.21429
2022-10-06T01:39:13.228Z,4.35714
2022-10-06T01:40:13.258Z,4.42857
2022-10-06T01:41:13.298Z,4.35714
2022-10-06T01:42:13.334Z,4.5
2022-10-06T01:43:13.369Z,4.14286
2022-10-06T01:44:13.405Z,4.21429
2022-10-06T01:45:13.447Z,4.35714
2022-10-06T01:46:13.554Z,4.64286
2022-10-06T01:47:13.514Z,4.21429
2022-10-06T01:48:13.547Z,4.14286
2022-10-06T01:49:13.584Z,4.21429
2022-10-06T01:50:13.613Z,4.5
2022-10-06T01:51:13.646Z,4.35714
2022-10-06T01:52:13.684Z,4.64286
2022-10-06T01:53:13.721Z,4.14286
2022-10-06T01:54:13.755Z,4.21429
2022-10-06T01:55:13.787Z,4.64286
2022-10-06T01:56:13.837Z,4.42857
2022-10-06T01:57:13.869Z,4.64286
2022-10-06T01:58:13.904Z,4.42857
2022-10-06T01:59:13.942Z,4.42857
2022-10-06T02:00:13.972Z,4.5
2022-10-06T02:01:14.111Z,4.71429
2022-10-06T02:02:14.047Z,4.5
2022-10-06T02:03:14.081Z,4.85714
2022-10-06T02:04:14.159Z,4.21429
2022-10-06T02:05:14.152Z,4.35714
2022-10-06T02:06:14.227Z,3.92857
2022-10-06T02:07:14.214Z,4.42857
2022-10-06T02:08:14.247Z,4.21429
2022-10-06T02:09:14.291Z,4.14286
2022-10-06T02:10:14.326Z,4.42857
2022-10-06T02:11:14.363Z,4.35714
2022-10-06T02:12:14.395Z,4.42857
2022-10-06T02:13:14.428Z,4.42857
2022-10-06T02:14:14.460Z,4.85714
2022-10-06T02:15:14.504Z,4.35714
2022-10-06T02:16:14.587Z,4.92857
2022-10-06T02:17:14.585Z,4.42857
2022-10-06T02:18:14.612Z,4.5
2022-10-06T02:19:14.651Z,4.64286
2022-10-06T02:20:14.681Z,4.64286
2022-10-06T02:21:14.716Z,4.35714
2022-10-06T02:22:14.748Z,4.42857
2022-10-06T02:23:14.782Z,5.14286
2022-10-06T02:24:14.818Z,4.5
2022-10-06T02:25:14.856Z,4.35714
2022-10-06T02:26:14.895Z,4.71429
2022-10-06T02:27:14.927Z,4.64286
2022-10-06T02:28:15.037Z,4.71429
2022-10-06T02:29:14.999Z,4.35714
2022-10-06T02:30:15.037Z,4.42857
2022-10-06T02:31:15.130Z,4.35714
2022-10-06T02:32:15.109Z,4.14286
2022-10-06T02:33:15.140Z,5.14286
2022-10-06T02:34:15.180Z,4.64286
2022-10-06T02:35:15.220Z,4.71429
2022-10-06T02:36:15.252Z,4.64286
2022-10-06T02:37:15.289Z,4.64286
2022-10-06T02:38:15.328Z,4.64286
2022-10-06T02:39:15.361Z,4.64286
2022-10-06T02:40:15.397Z,4.92857
2022-10-06T02:41:15.434Z,4.64286
2022-10-06T02:42:15.464Z,4.71429
2022-10-06T02:43:15.500Z,4.85714
2022-10-06T02:44:15.532Z,4.85714
2022-10-06T02:45:15.567Z,4.5
2022-10-06T02:46:15.677Z,4.64286
2022-10-06T02:47:15.648Z,4.42857
2022-10-06T02:48:15.681Z,4.5
2022-10-06T02:49:15.707Z,4.64286
2022-10-06T02:50:15.734Z,4.85714
2022-10-06T02:51:15.768Z,4.35714
2022-10-06T02:52:15.807Z,4.92857
2022-10-06T02:53:15.844Z,4.85714
2022-10-06T02:54:15.886Z,4.5
2022-10-06T02:55:15.937Z,5.14286
2022-10-06T02:56:15.990Z,5
2022-10-06T02:57:15.987Z,4.5
2022-10-06T02:58:16.021Z,4.64286
2022-10-06T02:59:16.053Z,4.42857
2022-10-06T03:00:16.105Z,4.5
2022-10-06T03:01:16.257Z,4.64286
2022-10-06T03:02:16.287Z,4.5
2022-10-06T03:03:16.187Z,4.64286
2022-10-06T03:04:16.239Z,5
2022-10-06T03:05:16.270Z,4.64286
2022-10-06T03:06:16.305Z,4.85714
2022-10-06T03:07:16.337Z,5.14286
2022-10-06T03:08:16.377Z,4.71429
2022-10-06T03:09:16.418Z,4.5
2022-10-06T03:10:16.457Z,4.64286
2022-10-06T03:11:16.497Z,4.85714
2022-10-06T03:12:16.535Z,4.42857
2022-10-06T03:13:16.574Z,4.5
2022-10-06T03:14:20.550Z,4.85714
2022-10-06T03:15:16.651Z,5.35714
2022-10-06T03:16:16.737Z,4.85714
2022-10-06T03:17:16.721Z,4.35714
2022-10-06T03:18:16.752Z,4.5
2022-10-06T03:19:16.790Z,4.71429
2022-10-06T03:20:16.821Z,4.35714
2022-10-06T03:21:16.859Z,4.85714
2022-10-06T03:22:16.896Z,4.21429
2022-10-06T03:23:16.930Z,5.85714
2022-10-06T03:24:16.970Z,4.5
2022-10-06T03:25:17.007Z,4.35714
2022-10-06T03:26:17.048Z,4.85714
2022-10-06T03:27:17.074Z,4.5
2022-10-06T03:28:17.189Z,4.92857
2022-10-06T03:29:17.155Z,4.42857
2022-10-06T03:30:17.178Z,4.5
2022-10-06T03:31:17.254Z,4.42857
2022-10-06T03:32:17.242Z,4.35714
2022-10-06T03:33:17.262Z,4.85714
2022-10-06T03:34:17.306Z,4.5
2022-10-06T03:35:17.353Z,4.42857
2022-10-06T03:36:17.385Z,4.71429
2022-10-06T03:37:17.408Z,4.42857
2022-10-06T03:38:17.445Z,4.64286
2022-10-06T03:39:17.486Z,4.85714
2022-10-06T03:40:17.518Z,4.35714
2022-10-06T03:41:17.552Z,4.64286
2022-10-06T03:42:17.589Z,3.85714
2022-10-06T03:43:17.629Z,3.85714
2022-10-06T03:44:17.662Z,3.92857
2022-10-06T03:45:17.704Z,3.92857
2022-10-06T03:46:17.766Z,4
2022-10-06T03:47:17.864Z,3.85714
2022-10-06T03:48:17.815Z,4.35714
2022-10-06T03:49:17.853Z,3.92857
2022-10-06T03:50:17.890Z,3.85714
2022-10-06T03:51:17.931Z,4.14286
2022-10-06T03:52:20.185Z,3.71429
2022-10-06T03:53:18.008Z,4.71429
2022-10-06T03:54:18.043Z,4.14286
2022-10-06T03:55:18.082Z,4.21429
2022-10-06T03:56:18.110Z,3.71429
2022-10-06T03:57:18.154Z,4
2022-10-06T03:58:18.181Z,4.21429
2022-10-06T03:59:18.212Z,4.35714
2022-10-06T04:00:18.249Z,4
2022-10-06T04:01:21.128Z,3.85714
2022-10-06T04:02:18.413Z,3.14286
2022-10-06T04:03:18.368Z,3.21429
2022-10-06T04:04:18.406Z,3.35714
2022-10-06T04:05:18.444Z,3.21429
2022-10-06T04:06:18.483Z,3.21429
2022-10-06T04:07:18.518Z,3.42857
2022-10-06T04:08:18.554Z,3.21429
2022-10-06T04:09:18.591Z,3.14286
2022-10-06T04:10:18.629Z,3.64286
2022-10-06T04:11:18.659Z,3.21429
2022-10-06T04:12:18.693Z,3.14286
2022-10-06T04:13:18.726Z,3.42857
2022-10-06T04:14:18.759Z,3.35714
2022-10-06T04:15:18.796Z,2.92857
2022-10-06T04:16:18.886Z,2.92857
2022-10-06T04:17:18.864Z,2.71429
2022-10-06T04:18:18.903Z,2.71429
2022-10-06T04:19:18.955Z,3.42857
2022-10-06T04:20:18.982Z,3
2022-10-06T04:21:19.006Z,3.5
2022-10-06T04:22:19.046Z,2.85714
2022-10-06T04:23:19.084Z,2.5
2022-10-06T04:24:19.121Z,2.71429
2022-10-06T04:25:19.149Z,2.64286
2022-10-06T04:26:19.195Z,1.92857
2022-10-06T04:27:19.229Z,2.35714
2022-10-06T04:28:19.323Z,2.42857
2022-10-06T04:29:19.306Z,1.92857
2022-10-06T04:30:19.345Z,2
2022-10-06T04:31:19.465Z,2.42857
2022-10-06T04:32:19.417Z,2.5
2022-10-06T04:33:19.455Z,2
2022-10-06T04:34:19.490Z,2.71429
2022-10-06T04:35:19.519Z,1.71429
2022-10-06T04:36:19.559Z,1.85714
2022-10-06T04:37:19.596Z,1.71429
2022-10-06T04:38:19.641Z,1.5
2022-10-06T04:39:19.669Z,2.64286
2022-10-06T04:40:19.718Z,1.5
2022-10-06T04:41:19.745Z,1.42857
2022-10-06T04:42:19.784Z,1.42857
2022-10-06T04:43:19.812Z,1.42857
2022-10-06T04:44:19.851Z,1.42857
2022-10-06T04:45:19.878Z,1.64286
2022-10-06T04:46:41.408Z,1.5
2022-10-06T04:47:19.948Z,1.71429
2022-10-06T04:48:19.979Z,1.21429
2022-10-06T04:49:20.820Z,1.85714
2022-10-06T04:50:20.044Z,1.5
2022-10-06T04:51:20.076Z,1.71429
2022-10-06T04:52:20.111Z,1.42857
2022-10-06T04:53:20.144Z,1.14286
2022-10-06T04:54:20.190Z,1.35714
2022-10-06T04:55:20.218Z,1.42857
2022-10-06T04:56:20.250Z,1.21429
2022-10-06T04:57:20.285Z,1.71429
2022-10-06T04:58:20.331Z,1.14286
2022-10-06T04:59:20.366Z,1.92857
2022-10-06T05:00:20.401Z,1.35714
2022-10-06T05:01:20.484Z,1.21429
2022-10-06T05:02:20.541Z,1.5
2022-10-06T05:03:20.502Z,1.14286
2022-10-06T05:04:20.524Z,2.21429
2022-10-06T05:05:20.563Z,1.14286
2022-10-06T05:06:20.594Z,1.5
2022-10-06T05:07:20.626Z,1.5
2022-10-06T05:08:20.661Z,1.35714
2022-10-06T05:09:20.687Z,1.5
2022-10-06T05:10:20.720Z,1.21429
2022-10-06T05:11:25.586Z,2.92857
2022-10-06T05:12:20.779Z,2.71429
2022-10-06T05:13:20.810Z,1.35714
2022-10-06T05:14:20.840Z,1.71429
2022-10-06T05:15:20.880Z,2.35714
2022-10-06T05:16:20.955Z,1.35714
2022-10-06T05:17:20.945Z,1.14286
2022-10-06T05:18:20.982Z,1.21429
2022-10-06T05:19:21.021Z,1.5
2022-10-06T05:20:21.057Z,1.35714
2022-10-06T05:21:21.091Z,1.5
2022-10-06T05:22:21.122Z,1.14286
2022-10-06T05:23:21.149Z,1.64286
2022-10-06T05:24:21.181Z,1.35714
2022-10-06T05:25:21.213Z,1.14286
2022-10-06T05:26:21.236Z,1.14286
2022-10-06T05:27:21.273Z,2
2022-10-06T05:28:21.351Z,2.35714
2022-10-06T05:29:21.335Z,1.14286
2022-10-06T05:30:21.379Z,1.14286
2022-10-06T05:31:21.443Z,1.14286
2022-10-06T05:32:21.451Z,1.5
2022-10-06T05:33:21.482Z,1.64286
2022-10-06T05:34:21.520Z,1.35714
2022-10-06T05:35:21.555Z,1.42857
2022-10-06T05:36:21.592Z,1.85714
2022-10-06T05:37:21.628Z,1.35714
2022-10-06T05:38:21.666Z,1.21429
2022-10-06T05:39:21.694Z,1.92857
2022-10-06T05:40:21.733Z,1.35714
2022-10-06T05:41:21.766Z,1.21429
2022-10-06T05:42:24.143Z,1.42857
2022-10-06T05:43:21.830Z,1.64286
2022-10-06T05:44:21.879Z,1.35714
2022-10-06T05:45:21.900Z,1.14286
2022-10-06T05:46:21.951Z,1.21429
2022-10-06T05:47:21.960Z,1.42857
2022-10-06T05:48:21.998Z,1.5
2022-10-06T05:49:22.031Z,1.35714
2022-10-06T05:50:22.076Z,2.14286
2022-10-06T05:51:23.782Z,1.21429
2022-10-06T05:52:22.153Z,1.14286
2022-10-06T05:53:22.191Z,1
2022-10-06T05:54:22.232Z,1.71429
2022-10-06T05:55:22.265Z,3.71429
2022-10-06T05:56:22.303Z,1.5
2022-10-06T05:57:22.335Z,1.35714
2022-10-06T05:58:22.363Z,1.42857
2022-10-06T05:59:22.395Z,2
2022-10-06T06:00:22.419Z,1.71429
2022-10-06T06:01:22.479Z,1.71429
2022-10-06T06:02:22.568Z,1.14286
2022-10-06T06:03:22.519Z,1.21429
2022-10-06T06:04:22.549Z,1.14286
2022-10-06T06:05:22.585Z,1.42857
2022-10-06T06:06:22.622Z,1.85714
2022-10-06T06:07:22.648Z,1.92857
2022-10-06T06:08:22.681Z,1.64286
2022-10-06T06:09:22.724Z,1.21429
2022-10-06T06:10:22.756Z,1.35714
2022-10-06T06:11:22.786Z,1.42857
2022-10-06T06:12:22.817Z,2
2022-10-06T06:13:22.844Z,1.92857
2022-10-06T06:14:22.876Z,1.21429
2022-10-06T06:15:22.908Z,1.14286
2022-10-06T06:16:22.976Z,1.5
2022-10-06T06:17:22.970Z,1.21429
2022-10-06T06:18:23.005Z,1.21429
2022-10-06T06:19:27.069Z,1.71429
2022-10-06T06:20:23.055Z,1.42857
2022-10-06T06:21:23.093Z,1.5
2022-10-06T06:22:23.120Z,1.35714
2022-10-06T06:23:23.156Z,2.64286
2022-10-06T06:24:23.186Z,1.85714
2022-10-06T06:25:23.223Z,1.14286
2022-10-06T06:26:23.261Z,1.5
2022-10-06T06:27:23.300Z,2.14286
2022-10-06T06:28:23.378Z,1.85714
2022-10-06T06:29:23.366Z,1.42857
2022-10-06T06:30:23.401Z,1.92857
2022-10-06T06:31:23.564Z,1.92857
2022-10-06T06:32:23.461Z,1.5
2022-10-06T06:33:23.498Z,2.14286
2022-10-06T06:34:23.529Z,1.64286
2022-10-06T06:35:23.570Z,3.35714
2022-10-06T06:36:23.598Z,2.42857
2022-10-06T06:37:23.628Z,1.42857
2022-10-06T06:38:23.661Z,2.35714
2022-10-06T06:39:23.700Z,2.5
2022-10-06T06:40:23.733Z,2.35714
2022-10-06T06:41:23.775Z,1.64286
2022-10-06T06:42:23.791Z,2.35714
2022-10-06T06:43:23.835Z,1.71429
2022-10-06T06:44:23.866Z,1.85714
2022-10-06T06:45:23.892Z,1.5
2022-10-06T06:46:24.182Z,1.21429
2022-10-06T06:47:25.903Z,1.71429
2022-10-06T06:48:23.985Z,1.42857
2022-10-06T06:49:24.023Z,2.5
2022-10-06T06:50:24.055Z,1.71429
2022-10-06T06:51:24.224Z,1.71429
2022-10-06T06:52:24.122Z,2.71429
2022-10-06T06:53:24.158Z,1.92857
2022-10-06T06:54:24.185Z,1.85714
2022-10-06T06:55:24.222Z,2
2022-10-06T06:56:24.256Z,3.21429
2022-10-06T06:57:24.300Z,2.14286
2022-10-06T06:58:24.350Z,1.5
2022-10-06T06:59:24.356Z,2.21429
2022-10-06T07:00:24.503Z,1.5
2022-10-06T07:01:24.506Z,1.85714
2022-10-06T07:02:24.534Z,1.71429
2022-10-06T07:03:52.256Z,1.42857
2022-10-06T07:04:24.508Z,1.5
2022-10-06T07:05:24.544Z,2.14286
2022-10-06T07:06:27.769Z,1.42857
2022-10-06T07:07:24.619Z,1.5
2022-10-06T07:08:24.649Z,1.92857
2022-10-06T07:09:24.691Z,1.85714
2022-10-06T07:10:24.829Z,1.85714
2022-10-06T07:11:24.747Z,2
2022-10-06T07:12:24.785Z,1.71429
2022-10-06T07:13:25.675Z,2.21429
2022-10-06T07:14:24.853Z,2.42857
2022-10-06T07:15:24.893Z,1.92857
2022-10-06T07:16:24.928Z,2.14286
2022-10-06T07:17:24.964Z,1.85714
2022-10-06T07:18:25.000Z,1.85714
2022-10-06T07:19:25.195Z,1.35714
2022-10-06T07:20:25.059Z,1.92857
2022-10-06T07:21:25.096Z,2
2022-10-06T07:22:25.118Z,2.71429
2022-10-06T07:23:25.155Z,1.5
2022-10-06T07:24:25.193Z,2.42857
2022-10-06T07:25:25.942Z,2
2022-10-06T07:26:25.257Z,2.14286
2022-10-06T07:27:25.293Z,2.21429
2022-10-06T07:28:25.412Z,2.5
2022-10-06T07:29:25.349Z,2.35714
2022-10-06T07:30:25.386Z,1.71429
2022-10-06T07:31:25.416Z,2.42857
2022-10-06T07:32:25.449Z,2.5
2022-10-06T07:33:25.487Z,1.71429
2022-10-06T07:34:25.520Z,1.92857
2022-10-06T07:35:25.553Z,1.85714
2022-10-06T07:36:25.578Z,1.85714
2022-10-06T07:37:25.604Z,2.21429
2022-10-06T07:38:25.638Z,2.21429
2022-10-06T07:39:25.673Z,3
2022-10-06T07:40:25.699Z,1.64286
2022-10-06T07:41:25.731Z,1.64286
2022-10-06T07:42:25.758Z,2.35714
2022-10-06T07:43:25.798Z,4.14286
2022-10-06T07:44:25.821Z,2.42857
2022-10-06T07:45:25.859Z,3.21429
2022-10-06T07:46:25.989Z,3
2022-10-06T07:47:25.922Z,2.21429
2022-10-06T07:48:25.951Z,3
2022-10-06T07:49:25.980Z,2.21429
2022-10-06T07:50:26.004Z,2.85714
2022-10-06T07:51:26.035Z,2.71429
2022-10-06T07:52:26.076Z,2.71429
2022-10-06T07:53:26.105Z,2
2022-10-06T07:54:27.457Z,2.85714
2022-10-06T07:55:26.179Z,2.85714
2022-10-06T07:56:26.210Z,2
2022-10-06T07:57:26.246Z,2.85714
2022-10-06T07:58:26.279Z,3.35714
2022-10-06T07:59:26.309Z,2
2022-10-06T08:00:26.386Z,2.85714
2022-10-06T08:01:26.402Z,3.14286
2022-10-06T08:02:28.334Z,3
2022-10-06T08:03:26.488Z,2.42857
2022-10-06T08:04:26.491Z,4.35714
2022-10-06T08:05:26.499Z,3.5
2022-10-06T08:06:26.534Z,3.21429
2022-10-06T08:07:26.568Z,2.21429
2022-10-06T08:08:26.602Z,2.64286
2022-10-06T08:09:26.658Z,3
2022-10-06T08:10:26.673Z,2.5
2022-10-06T08:11:26.704Z,2.85714
2022-10-06T08:12:26.725Z,2.71429
2022-10-06T08:13:26.759Z,2.14286
2022-10-06T08:14:26.797Z,3.64286
2022-10-06T08:15:26.831Z,2.85714
2022-10-06T08:16:26.952Z,3.14286
2022-10-06T08:17:26.900Z,3
2022-10-06T08:18:45.411Z,2.35714
2022-10-06T08:19:26.967Z,4.21429
2022-10-06T08:20:26.992Z,2.71429
2022-10-06T08:21:27.036Z,2.5
2022-10-06T08:22:27.065Z,3.42857
2022-10-06T08:23:27.093Z,2.85714
2022-10-06T08:24:33.836Z,3.71429
2022-10-06T08:25:27.151Z,2.35714
2022-10-06T08:26:27.186Z,2.85714
2022-10-06T08:27:27.223Z,2.64286
2022-10-06T08:28:27.356Z,4.71429
2022-10-06T08:29:27.293Z,3.35714
2022-10-06T08:30:27.331Z,3.85714
2022-10-06T08:31:27.467Z,2.5
2022-10-06T08:32:27.382Z,4
2022-10-06T08:33:27.418Z,3.64286
2022-10-06T08:34:27.462Z,3.21429
2022-10-06T08:35:27.487Z,4.64286
2022-10-06T08:36:31.295Z,2.35714
2022-10-06T08:37:27.593Z,2.42857
2022-10-06T08:38:27.589Z,3.21429
2022-10-06T08:39:27.602Z,4.42857
2022-10-06T08:40:27.656Z,3.64286
2022-10-06T08:41:27.668Z,3.14286
2022-10-06T08:42:27.706Z,4.35714
2022-10-06T08:43:27.747Z,3.35714
2022-10-06T08:44:27.776Z,4.21429
2022-10-06T08:45:27.809Z,3.5
2022-10-06T08:46:27.852Z,3
2022-10-06T08:47:27.884Z,5.64286
2022-10-06T08:48:27.910Z,2.64286
2022-10-06T08:49:27.943Z,4.21429
2022-10-06T08:50:27.989Z,4.85714
2022-10-06T08:51:28.021Z,4.42857
2022-10-06T08:52:28.052Z,2.85714
2022-10-06T08:53:28.087Z,4.64286
2022-10-06T08:54:28.125Z,4.14286
2022-10-06T08:55:28.155Z,4
2022-10-06T08:56:28.185Z,3.35714
2022-10-06T08:57:28.254Z,2.85714
2022-10-06T08:58:28.257Z,3.5
2022-10-06T08:59:28.300Z,3.64286
2022-10-06T09:00:28.331Z,3.35714
2022-10-06T09:01:28.382Z,3.42857
2022-10-06T09:02:28.462Z,3.5
2022-10-06T09:03:28.414Z,4.64286
2022-10-06T09:04:28.446Z,3
2022-10-06T09:05:28.476Z,3.14286
2022-10-06T09:06:28.502Z,2.5
2022-10-06T09:07:28.539Z,2.85714
2022-10-06T09:08:28.575Z,2.71429
2022-10-06T09:09:28.603Z,4.14286
2022-10-06T09:10:28.630Z,3.85714
2022-10-06T09:11:28.663Z,3.5
2022-10-06T09:12:28.691Z,5.64286
2022-10-06T09:13:28.724Z,4.85714
2022-10-06T09:14:28.760Z,13
2022-10-06T09:15:28.790Z,15.2143
2022-10-06T09:16:28.867Z,10.5
2022-10-06T09:17:28.856Z,4.92857
2022-10-06T09:18:43.494Z,5.92857
2022-10-06T09:19:32.844Z,8
2022-10-06T09:20:28.962Z,9.21429
2022-10-06T09:21:28.983Z,12
2022-10-06T09:22:29.039Z,5.42857
2022-10-06T09:23:29.055Z,5.71429
2022-10-06T09:24:29.075Z,8.85714
2022-10-06T09:25:29.117Z,7.42857
2022-10-06T09:26:29.185Z,4.35714
2022-10-06T09:27:29.181Z,8.71429
2022-10-06T09:28:29.260Z,10.9286
2022-10-06T09:29:29.236Z,11.5
2022-10-06T09:30:29.269Z,8.92857
2022-10-06T09:31:29.334Z,4.64286
2022-10-06T09:32:29.348Z,3.85714
2022-10-06T09:33:29.380Z,7.85714
2022-10-06T09:34:29.416Z,9.42857
2022-10-06T09:35:29.450Z,6.71429
2022-10-06T09:36:29.479Z,6.5
2022-10-06T09:37:29.508Z,6.5
2022-10-06T09:38:29.557Z,5.92857
2022-10-06T09:39:29.565Z,4.5
2022-10-06T09:40:29.596Z,2.71429
2022-10-06T09:41:29.631Z,4.21429
2022-10-06T09:42:29.795Z,3.64286
2022-10-06T09:43:29.701Z,3.92857
2022-10-06T09:44:29.735Z,2.5
2022-10-06T09:45:29.765Z,2.85714
2022-10-06T09:46:29.802Z,4.14286
2022-10-06T09:47:29.839Z,4.92857
2022-10-06T09:48:29.867Z,3.64286
2022-10-06T09:49:29.905Z,3.14286
2022-10-06T09:50:29.928Z,4.42857
2022-10-06T09:51:29.956Z,4.71429
2022-10-06T09:52:29.991Z,3.71429
2022-10-06T09:53:33.212Z,4.14286
2022-10-06T09:54:30.049Z,3.35714
2022-10-06T09:55:30.087Z,5
2022-10-06T09:56:30.121Z,3.85714
2022-10-06T09:57:30.156Z,2.85714
2022-10-06T09:58:30.182Z,4
2022-10-06T09:59:30.219Z,4.64286
2022-10-06T10:00:30.340Z,2.42857
2022-10-06T10:01:30.337Z,3.92857
2022-10-06T10:02:30.365Z,4.42857
2022-10-06T10:03:30.351Z,3.92857
2022-10-06T10:04:30.390Z,4.14286
2022-10-06T10:05:30.424Z,4.14286
2022-10-06T10:06:30.463Z,4.64286
2022-10-06T10:07:30.495Z,5.14286
2022-10-06T10:08:30.641Z,5.85714
2022-10-06T10:09:30.567Z,4.21429
2022-10-06T10:10:30.584Z,5.64286
2022-10-06T10:11:30.611Z,4.35714
2022-10-06T10:12:30.646Z,3.21429
2022-10-06T10:13:30.680Z,4.21429
2022-10-06T10:14:30.709Z,3.42857
2022-10-06T10:15:30.743Z,3.35714
2022-10-06T10:16:30.828Z,3
2022-10-06T10:17:30.805Z,2.85714
2022-10-06T10:18:30.838Z,4.92857
2022-10-06T10:19:30.875Z,4.21429
2022-10-06T10:20:30.905Z,3
2022-10-06T10:21:30.941Z,4.14286
2022-10-06T10:22:30.968Z,3.92857
2022-10-06T10:23:31.891Z,5.42857
2022-10-06T10:24:31.025Z,3.5
2022-10-06T10:25:31.055Z,3
2022-10-06T10:26:31.087Z,2.71429
2022-10-06T10:27:31.124Z,2.64286
2022-10-06T10:28:31.203Z,2.92857
2022-10-06T10:29:32.869Z,2.42857
2022-10-06T10:30:31.207Z,3.5
2022-10-06T10:31:31.380Z,3.64286
2022-10-06T10:32:31.279Z,3.5
2022-10-06T10:33:31.306Z,4.42857
2022-10-06T10:34:31.332Z,2.85714
2022-10-06T10:35:31.368Z,5.14286
2022-10-06T10:36:31.401Z,4
2022-10-06T10:37:31.429Z,3
2022-10-06T10:38:31.467Z,3.21429
2022-10-06T10:39:31.502Z,2.71429
2022-10-06T10:40:31.539Z,3
2022-10-06T10:41:31.565Z,3.5
2022-10-06T10:42:31.588Z,3.71429
2022-10-06T10:43:31.622Z,3.14286
2022-10-06T10:44:31.654Z,2.42857
2022-10-06T10:45:31.702Z,3.14286
2022-10-06T10:46:31.800Z,2.85714
2022-10-06T10:47:31.746Z,4.14286
2022-10-06T10:48:31.775Z,4.64286
2022-10-06T10:49:31.815Z,2.5
2022-10-06T10:50:31.847Z,3.35714
2022-10-06T10:51:31.884Z,2.64286
2022-10-06T10:52:31.907Z,3.35714
2022-10-06T10:53:31.943Z,2.5
2022-10-06T10:54:31.969Z,3.5
2022-10-06T10:55:32.007Z,3.5
2022-10-06T10:56:32.041Z,2.64286
2022-10-06T10:57:32.072Z,2.92857
2022-10-06T10:58:32.103Z,4.14286
2022-10-06T10:59:32.139Z,4.14286
2022-10-06T11:00:32.294Z,3.92857
2022-10-06T11:01:32.274Z,3.14286
2022-10-06T11:02:32.244Z,2.92857
2022-10-06T11:03:32.284Z,4.42857
2022-10-06T11:04:32.318Z,2.64286
2022-10-06T11:05:32.356Z,2.14286
2022-10-06T11:06:32.398Z,4.92857
2022-10-06T11:07:32.423Z,2.85714
2022-10-06T11:08:32.467Z,4.5
2022-10-06T11:09:32.492Z,2.92857
2022-10-06T11:10:32.531Z,2.64286
2022-10-06T11:11:32.568Z,3.21429
2022-10-06T11:12:32.603Z,3.71429
2022-10-06T11:13:32.627Z,3.85714
2022-10-06T11:14:32.666Z,3.42857
2022-10-06T11:15:32.699Z,8.14286
2022-10-06T11:16:32.775Z,4.64286
2022-10-06T11:17:32.774Z,2.92857
2022-10-06T11:18:32.800Z,4.42857
2022-10-06T11:19:32.836Z,5.21429
2022-10-06T11:20:32.869Z,2.42857
2022-10-06T11:21:32.903Z,3.64286
2022-10-06T11:22:32.940Z,3.85714
2022-10-06T11:23:32.975Z,3.42857
2022-10-06T11:24:33.006Z,2.71429
2022-10-06T11:25:35.043Z,3.71429
2022-10-06T11:26:33.076Z,2.92857
2022-10-06T11:27:33.111Z,3.92857
2022-10-06T11:28:33.235Z,3.71429
2022-10-06T11:29:33.175Z,3.14286
2022-10-06T11:30:33.207Z,4.42857
2022-10-06T11:31:33.264Z,3.21429
2022-10-06T11:32:33.278Z,3.14286
2022-10-06T11:33:33.302Z,4.21429
2022-10-06T11:34:33.342Z,4.71429
2022-10-06T11:35:33.377Z,2.71429
2022-10-06T11:36:33.491Z,4.5
2022-10-06T11:37:33.451Z,5.42857
2022-10-06T11:38:33.488Z,3.71429
2022-10-06T11:39:33.516Z,3
2022-10-06T11:40:33.540Z,3.92857
2022-10-06T11:41:33.578Z,3.64286
2022-10-06T11:42:33.615Z,4.5
2022-10-06T11:43:33.647Z,4
2022-10-06T11:44:33.688Z,3.21429
2022-10-06T11:45:33.758Z,3.85714
2022-10-06T11:46:35.619Z,4
2022-10-06T11:47:35.612Z,3
2022-10-06T11:48:33.824Z,3.85714
2022-10-06T11:49:33.845Z,4
2022-10-06T11:50:33.874Z,4.21429
2022-10-06T11:51:33.913Z,4.14286
2022-10-06T11:52:33.937Z,2.71429
2022-10-06T11:53:33.967Z,4.64286
2022-10-06T11:54:33.993Z,4.21429
2022-10-06T11:55:34.039Z,2.85714
2022-10-06T11:56:34.073Z,3
2022-10-06T11:57:34.105Z,3
2022-10-06T11:58:42.459Z,3.71429
2022-10-06T11:59:34.173Z,2.92857
2022-10-06T12:00:34.205Z,2.5
2022-10-06T12:01:34.244Z,3.71429
2022-10-06T12:02:34.388Z,4.64286
2022-10-06T12:03:34.293Z,3.92857
2022-10-06T12:04:34.320Z,2.92857
2022-10-06T12:05:56.310Z,3.35714
2022-10-06T12:06:34.395Z,5.35714
2022-10-06T12:07:34.427Z,5
2022-10-06T12:08:34.461Z,4.35714
2022-10-06T12:09:34.495Z,6.21429
2022-10-06T12:10:34.531Z,4
2022-10-06T12:11:34.562Z,2.5
2022-10-06T12:12:34.592Z,3.35714
2022-10-06T12:17:34.761Z,2.64286
2022-10-06T12:18:34.787Z,2.85714
2022-10-06T12:19:34.814Z,3.21429
2022-10-06T12:20:34.844Z,2.71429
2022-10-06T12:21:34.878Z,2.64286
2022-10-06T12:22:34.914Z,3.92857
2022-10-06T12:23:34.942Z,4
2022-10-06T12:24:34.980Z,3
2022-10-06T12:25:35.010Z,4.21429
2022-10-06T12:26:35.047Z,2.71429
2022-10-06T12:27:35.072Z,4.42857
2022-10-06T12:28:35.142Z,2.64286
2022-10-06T12:29:35.126Z,3.42857
2022-10-06T12:30:35.227Z,3.21429
2022-10-06T12:31:35.196Z,3.35714